• Join FlightAware (Why Join?)
  • Login
  • US Flag 
08:13AM EDT


 

Airport Tracker/Info


-or-


 

Live Flight TrackerFlight Track Log ✈ KAP927 ✈ 21-Aug-2013 ✈ KALB - KOGS

Flight Track Log - Related Links

Times and Time Zones

All times are in EDT time to prevent confusion due to time zone crossing. See the KAP927 flight status page for this flight to view local times or setup timezone preferences in your user account.

Time Position Orientation Groundspeed Altitude Reporting Facility
EDT Latitude Longitude Course Direction KTS MPH feet Rate Location/Type
02:32PM 42.7503 -73.8453 277° West 110 127 1,100  Level Boston Center
02:33PM 42.7750 -73.8628 333° Northwest 113 130 1,500 480 Climbing Boston Center
02:34PM 42.8186 -73.8694 354° North 118 136 2,300 540 Climbing Boston Center
02:35PM 42.8500 -73.8731 355° North 122 140 2,800 480 Climbing Boston Center
02:36PM 42.8831 -73.8767 355° North 120 138 3,300 480 Climbing Boston Center
02:37PM 42.9164 -73.8803 355° North 123 142 3,800 480 Climbing Boston Center
02:38PM 42.9519 -73.8867 353° North 125 144 4,300 480 Climbing Boston Center
02:39PM 42.9808 -73.8931 351° North 124 143 4,700 420 Climbing Boston Center
02:40PM 43.0122 -73.8939 359° North 125 144 5,100 360 Climbing Boston Center
02:41PM 43.0475 -73.9033 349° North 127 146 5,500 360 Climbing Boston Center
02:42PM 43.0828 -73.9069 356° North 130 150 5,900 360 Climbing Boston Center
02:43PM 43.1183 -73.9133 353° North 133 153 6,300 420 Climbing Boston Center
02:44PM 43.1600 -73.9172 356° North 136 157 6,800 420 Climbing Boston Center
02:45PM 43.1892 -73.9181 359° North 143 165 7,100 300 Climbing Boston Center
02:46PM 43.2222 -73.9275 348° North 137 158 7,400 300 Climbing Boston Center
02:47PM 43.2658 -73.9314 356° North 143 165 7,800 360 Climbing Boston Center
02:48PM 43.3075 -73.9381 353° North 143 165 8,200 360 Climbing Boston Center
02:49PM 43.3386 -73.9644 328° Northwest 143 165 8,600 300 Climbing Boston Center
02:50PM 43.3692 -73.9994 320° Northwest 143 165 8,900 180 Climbing Boston Center
02:51PM 43.4000 -74.0317 323° Northwest 143 165 9,000  Climbing Boston Center
02:52PM 43.4350 -74.0697 322° Northwest 143 165 9,000  Level Boston Center
02:53PM 43.4700 -74.1081 322° Northwest 157 181 9,000  Level Boston Center
02:54PM 43.5067 -74.1492 321° Northwest 162 186 9,000  Level Boston Center
02:55PM 43.5417 -74.1872 322° Northwest 162 186 9,000  Level Boston Center
02:56PM 43.5744 -74.2225 322° Northwest 157 181 9,000  Level Boston Center
02:57PM 43.6092 -74.2581 323° Northwest 157 181 9,000  Level Boston Center
02:58PM 43.6381 -74.2906 321° Northwest 157 181 9,000  Level Boston Center
02:59PM 43.6708 -74.3258 322° Northwest 157 181 9,000  Level Boston Center
03:00PM 43.7014 -74.3614 320° Northwest 152 175 9,000  Level Boston Center
03:01PM 43.7319 -74.3969 320° Northwest 152 175 9,000  Level Boston Center
03:02PM 43.7647 -74.4325 322° Northwest 152 175 9,100  Climbing Boston Center
03:03PM 43.7933 -74.4650 321° Northwest 152 175 9,100  Level Boston Center
03:04PM 43.8242 -74.4978 323° Northwest 152 175 9,100  Level Boston Center
03:05PM 43.8567 -74.5333 322° Northwest 152 175 9,100  Level Boston Center
03:06PM 43.8894 -74.5692 322° Northwest 152 175 9,100 -60 Level Boston Center
03:07PM 43.9222 -74.6047 322° Northwest 152 175 9,000 -60 Descending Boston Center
03:08PM 43.9547 -74.6406 322° Northwest 152 175 9,000  Level Boston Center
03:09PM 43.9853 -74.6764 320° Northwest 152 175 9,000  Level Boston Center
03:10PM 44.0181 -74.7094 324° Northwest 152 175 9,100  Climbing Boston Center
03:11PM 44.0506 -74.7481 320° Northwest 152 175 9,100 -360 Level Boston Center
03:12PM 44.0853 -74.7869 321° Northwest 152 175 8,400 -660 Descending Boston Center
03:13PM 44.1239 -74.8292 322° Northwest 165 190 7,900 -540 Descending Boston Center
03:14PM 44.1628 -74.8711 322° Northwest 170 196 7,400 -600 Descending Boston Center
03:15PM 44.2014 -74.9133 322° Northwest 175 201 6,800 -660 Descending Boston Center
03:16PM 44.2400 -74.9556 322° Northwest 175 201 6,200 -360 Descending Boston Center
03:17PM 44.2789 -74.9947 324° Northwest 175 201 6,100 -120 Descending Boston Center
03:18PM 44.3111 -75.0367 317° Northwest 169 194 6,000 -420 Descending Boston Center
03:19PM 44.3544 -75.0589 340° North 164 189 5,300 -720 Descending Boston Center
03:20PM 44.3953 -75.0986 325° Northwest 172 198 4,600 -720 Descending Boston Center